Time;durP1;ratioP1;P1;durP2;ratioP2;P2;SDS_P1;SDS_P2;PMS_P1;PMS_P2;Temp;Humidity;BMP_temperature;BMP_pressure;BME280_temperature;BME280_humidity;BME280_pressure;Samples;Min_cycle;Max_cycle;Signal;HPM_P1;HPM_P2
2023/07/31 00:08:29;;;;;;;3.25;1.15;;;;;;;14.71;100.00;97964.13;18436450;32;20465;-57
2023/07/31 00:18:32;;;;;;;1.98;1.15;;;;;;;14.62;100.00;97949.50;18436006;32;20061;-57
2023/07/31 00:28:36;;;;;;;5.35;0.93;;;;;;;14.53;100.00;97950.13;18435183;32;20053;-57
2023/07/31 00:38:39;;;;;;;1.40;1.05;;;;;;;14.41;100.00;97949.72;18421105;32;20103;-57
2023/07/31 00:48:41;;;;;;;2.87;1.30;;;;;;;14.33;100.00;97948.44;18433826;32;20065;-56
2023/07/31 00:58:44;;;;;;;1.20;0.73;;;;;;;14.23;100.00;97938.47;18432945;32;20075;-56
2023/07/31 01:09:15;;;;;;;1.67;0.90;;;;;;;14.12;100.00;97926.09;18432915;32;20449;-57
2023/07/31 01:19:21;;;;;;;2.80;1.60;;;;;;;14.02;100.00;97926.19;18389600;32;20433;-57
2023/07/31 01:29:37;;;;;;;1.60;1.00;;;;;;;13.94;100.00;97907.78;18425336;32;20072;-57
2023/07/31 01:39:40;;;;;;;1.58;0.85;;;;;;;13.81;100.00;97910.03;18431431;32;20132;-57
2023/07/31 01:49:42;;;;;;;2.75;1.23;;;;;;;13.76;100.00;97910.09;18430840;32;20120;-57
2023/07/31 01:59:44;;;;;;;6.25;1.60;;;;;;;13.67;100.00;97896.31;18430784;32;20080;-56
2023/07/31 02:09:47;;;;;;;3.47;0.98;;;;;;;13.61;100.00;97874.87;18435428;32;20054;-56
2023/07/31 02:19:50;;;;;;;3.95;1.35;;;;;;;13.52;100.00;97874.69;18442996;32;20109;-57
2023/07/31 02:29:52;;;;;;;1.35;0.95;;;;;;;13.38;100.00;97859.03;18415481;32;20050;-56
2023/07/31 02:39:55;;;;;;;2.10;1.10;;;;;;;13.32;100.00;97856.63;18442336;32;20061;-56
2023/07/31 02:49:57;;;;;;;4.30;1.10;;;;;;;13.24;100.00;97844.47;18440993;32;20057;-57
2023/07/31 03:00:00;;;;;;;2.17;1.05;;;;;;;13.21;100.00;97837.69;18440391;32;20065;-56
2023/07/31 03:10:03;;;;;;;1.83;1.10;;;;;;;13.16;100.00;97856.75;18425705;32;20164;-56
2023/07/31 03:20:06;;;;;;;4.15;1.15;;;;;;;13.09;100.00;97863.56;18432239;32;20057;-56
2023/07/31 03:30:08;;;;;;;2.45;1.23;;;;;;;12.99;100.00;97862.56;18438754;32;20061;-56
2023/07/31 03:40:11;;;;;;;2.03;1.40;;;;;;;12.93;100.00;97862.88;18438169;32;20418;-56
2023/07/31 03:50:14;;;;;;;1.85;1.12;;;;;;;12.86;100.00;97869.41;18437590;32;20056;-57
2023/07/31 04:00:16;;;;;;;2.20;1.10;;;;;;;12.86;100.00;97866.69;18437018;32;20062;-59
2023/07/31 04:10:18;;;;;;;2.33;1.20;;;;;;;12.85;100.00;97856.94;18436502;32;20058;-59
2023/07/31 04:20:21;;;;;;;4.62;1.45;;;;;;;12.90;100.00;97863.44;18435559;32;20509;-59
2023/07/31 04:30:24;;;;;;;2.28;1.05;;;;;;;12.91;100.00;97867.75;18420336;32;20434;-59
2023/07/31 04:40:26;;;;;;;1.67;1.00;;;;;;;12.92;100.00;97861.25;18434922;32;20474;-59
2023/07/31 04:50:30;;;;;;;1.37;0.93;;;;;;;13.04;100.00;97864.41;18433867;32;20076;-56
2023/07/31 05:00:32;;;;;;;1.27;0.97;;;;;;;13.22;100.00;97871.91;18433303;32;20081;-57
2023/07/31 05:10:34;;;;;;;1.87;1.12;;;;;;;13.39;100.00;97868.81;18426236;32;20077;-57
2023/07/31 05:20:37;;;;;;;2.40;1.20;;;;;;;13.64;100.00;97874.34;18432214;32;20450;-57
2023/07/31 05:30:39;;;;;;;1.80;0.85;;;;;;;13.79;100.00;97887.78;18431856;32;20053;-57
2023/07/31 05:40:43;;;;;;;2.12;1.08;;;;;;;13.94;100.00;97877.88;18431943;32;20066;-57
2023/07/31 05:50:45;;;;;;;1.30;0.90;;;;;;;14.11;100.00;97886.38;18416501;32;20091;-57
2023/07/31 06:00:48;;;;;;;1.73;1.02;;;;;;;14.40;100.00;97885.53;18399284;32;20082;-57
2023/07/31 06:10:50;;;;;;;2.65;1.20;;;;;;;14.67;100.00;97865.13;18429160;32;20101;-56
2023/07/31 06:20:54;;;;;;;5.12;1.92;;;;;;;14.95;100.00;97874.28;18430227;32;20084;-57
2023/07/31 06:30:58;;;;;;;1.80;1.20;;;;;;;15.30;100.00;97882.22;18429934;32;20061;-57
2023/07/31 06:41:01;;;;;;;1.80;0.90;;;;;;;15.75;100.00;97856.12;18415861;32;20498;-57
2023/07/31 06:51:04;;;;;;;1.23;0.93;;;;;;;16.06;100.00;97841.16;18428894;32;20409;-57
2023/07/31 07:01:07;;;;;;;1.08;0.70;;;;;;;16.25;100.00;97850.06;18438176;32;20065;-57
2023/07/31 07:11:11;;;;;;;2.05;1.40;;;;;;;16.63;100.00;97850.97;18440301;32;20362;-57
2023/07/31 07:21:15;;;;;;;2.47;1.33;;;;;;;17.14;100.00;97860.78;18439373;32;20069;-57
2023/07/31 07:31:18;;;;;;;2.97;1.60;;;;;;;17.71;100.00;97857.50;18438808;32;20057;-57
2023/07/31 07:41:26;;;;;;;1.98;1.17;;;;;;;18.35;100.00;97863.81;18424235;32;20437;-57
2023/07/31 07:51:31;;;;;;;3.47;1.00;;;;;;;18.85;100.00;97859.94;18437873;32;20053;-57
2023/07/31 08:01:40;;;;;;;1.02;0.65;;;;;;;19.17;100.00;97835.97;18436804;32;20441;-57
2023/07/31 08:11:43;;;;;;;3.90;0.90;;;;;;;19.22;100.00;97841.28;18421515;32;20096;-57
2023/07/31 08:21:45;;;;;;;2.47;1.08;;;;;;;19.66;100.00;97828.31;18436343;32;20065;-57
2023/07/31 08:31:48;;;;;;;1.73;1.00;;;;;;;20.22;100.00;97819.31;18421672;32;20118;-57
2023/07/31 08:41:51;;;;;;;;;;;;;;;20.93;100.00;97807.59;18434741;32;20078;-58
2023/07/31 08:51:55;;;;;;;2.58;1.10;;;;;;;21.65;100.00;97821.22;18433702;32;20264;-57
2023/07/31 09:02:06;;;;;;;3.67;1.15;;;;;;;21.30;100.00;97832.50;18433503;32;20113;-58
2023/07/31 09:12:09;;;;;;;2.55;1.08;;;;;;;21.28;98.45;97814.72;18418762;32;20073;-58
2023/07/31 09:22:13;;;;;;;3.10;1.52;;;;;;;21.88;92.22;97811.75;18431881;32;20069;-58
2023/07/31 09:32:17;;;;;;;2.28;1.20;;;;;;;22.27;84.02;97813.06;18431704;32;20098;-58
2023/07/31 09:42:28;;;;;;;2.92;1.23;;;;;;;22.51;80.41;97800.44;18431562;32;20070;-58
2023/07/31 09:52:32;;;;;;;3.47;1.48;;;;;;;22.68;82.79;97778.16;18365517;32;20110;-58
2023/07/31 10:02:37;;;;;;;5.70;1.50;;;;;;;22.77;72.64;97755.94;18366843;32;20493;-58
2023/07/31 10:12:42;;;;;;;3.10;1.50;;;;;;;22.51;73.17;97748.09;18366734;32;20464;-58
2023/07/31 10:22:46;;;;;;;3.55;1.70;;;;;;;23.09;83.44;97728.53;18366191;32;20339;-58
2023/07/31 10:32:52;;;;;;;4.87;1.45;;;;;;;23.84;67.19;97715.91;18371663;32;20374;-58
2023/07/31 10:43:00;;;;;;;4.20;1.60;;;;;;;24.50;77.02;97712.69;18371706;32;20103;-58
2023/07/31 10:53:06;;;;;;;3.25;1.40;;;;;;;25.21;67.07;97690.44;18375752;32;20050;-58
2023/07/31 11:03:12;;;;;;;2.78;1.20;;;;;;;25.39;73.06;97690.78;18376784;32;20054;-59
2023/07/31 11:13:15;;;;;;;1.98;1.08;;;;;;;24.94;61.44;97671.00;18376255;32;20097;-58
2023/07/31 11:23:18;;;;;;;2.25;1.58;;;;;;;24.63;65.77;97660.87;18375560;32;20065;-58
2023/07/31 11:33:21;;;;;;;4.00;1.27;;;;;;;24.74;68.09;97647.28;18374726;32;20088;-58
2023/07/31 11:43:24;;;;;;;3.92;1.67;;;;;;;25.03;60.59;97635.56;18374406;32;20102;-58
2023/07/31 11:53:35;;;;;;;2.50;1.25;;;;;;;25.37;62.08;97633.06;18437706;32;20389;-58
2023/07/31 12:03:38;;;;;;;3.28;1.40;;;;;;;25.13;70.93;97625.06;18437145;32;20072;-58
2023/07/31 12:13:41;;;;;;;4.37;2.00;;;;;;;25.81;70.51;97611.59;18410080;32;20329;-58
2023/07/31 12:23:45;;;;;;;2.58;1.37;;;;;;;26.15;61.28;97593.09;18435786;32;20057;-58
2023/07/31 12:33:53;;;;;;;1.80;1.52;;;;;;;26.06;66.65;97583.47;18434976;32;20416;-58
2023/07/31 12:43:57;;;;;;;3.03;1.48;;;;;;;26.42;66.21;97570.88;18434422;32;20050;-58
2023/07/31 12:54:01;;;;;;;3.33;1.73;;;;;;;26.71;62.27;97558.16;18433268;32;20132;-58
2023/07/31 13:04:04;;;;;;;2.35;1.65;;;;;;;27.31;58.20;97545.22;18433253;32;20098;-58
2023/07/31 13:14:09;;;;;;;3.42;1.85;;;;;;;27.83;65.22;97522.16;18406122;32;20453;-58
2023/07/31 13:24:12;;;;;;;4.62;2.15;;;;;;;28.52;55.28;97520.50;18417466;32;20123;-58
2023/07/31 13:34:15;;;;;;;5.05;2.17;;;;;;;28.50;59.09;97511.75;18426947;32;20061;-58
2023/07/31 13:44:18;;;;;;;2.30;2.05;;;;;;;28.30;57.70;97503.75;18417372;32;20062;-58
2023/07/31 13:54:20;;;;;;;3.92;2.62;;;;;;;28.11;54.16;97495.72;18416982;32;20065;-58
2023/07/31 14:04:23;;;;;;;5.93;2.30;;;;;;;28.51;58.87;97477.19;18433937;32;20069;-58
2023/07/31 14:14:27;;;;;;;4.45;2.10;;;;;;;28.38;49.69;97477.56;18429843;32;20441;-58
2023/07/31 14:24:30;;;;;;;3.92;2.10;;;;;;;28.18;56.37;97479.09;18436376;32;20120;-58
2023/07/31 14:34:33;;;;;;;4.53;2.30;;;;;;;28.32;49.49;97467.22;18442276;32;20129;-58
2023/07/31 14:44:44;;;;;;;3.20;2.05;;;;;;;28.77;49.68;97447.44;18427396;32;20057;-58
2023/07/31 14:54:47;;;;;;;3.15;1.73;;;;;;;29.12;51.45;97441.06;18427895;32;20101;-58
2023/07/31 15:04:50;;;;;;;3.35;2.33;;;;;;;28.48;51.83;97436.28;18427000;32;20054;-58
2023/07/31 15:14:54;;;;;;;3.28;1.95;;;;;;;27.65;55.44;97428.44;18412969;32;20058;-58
2023/07/31 15:24:57;;;;;;;3.90;1.92;;;;;;;26.88;57.07;97423.56;18439442;32;20108;-58
2023/07/31 15:35:01;;;;;;;4.05;2.10;;;;;;;26.29;58.52;97417.87;18438971;32;20395;-58
2023/07/31 15:45:05;;;;;;;5.50;2.45;;;;;;;26.34;56.02;97400.09;18423685;32;20054;-58
2023/07/31 15:55:08;;;;;;;2.97;2.05;;;;;;;25.76;59.20;97387.59;18423924;32;20091;-58
2023/07/31 16:05:11;;;;;;;5.15;2.12;;;;;;;25.40;64.85;97370.56;18410081;32;20041;-57
2023/07/31 16:15:15;;;;;;;3.53;2.05;;;;;;;25.21;65.36;97377.78;18422036;32;20490;-58
2023/07/31 16:25:18;;;;;;;3.75;1.95;;;;;;;25.25;67.75;97373.09;18409255;32;20475;-58
2023/07/31 16:35:22;;;;;;;3.62;1.98;;;;;;;25.42;63.84;97374.56;18435135;32;20061;-58
2023/07/31 16:45:28;;;;;;;2.55;1.95;;;;;;;25.50;73.20;97353.28;18434248;32;20057;-58
2023/07/31 16:55:34;;;;;;;3.15;1.90;;;;;;;26.52;63.45;97334.53;18419391;32;20482;-58
2023/07/31 17:05:38;;;;;;;4.10;1.90;;;;;;;25.58;71.00;97323.72;18433457;32;20053;-58
2023/07/31 17:15:41;;;;;;;3.65;2.40;;;;;;;25.30;76.35;97306.38;18432756;32;20058;-58
2023/07/31 17:25:44;;;;;;;3.35;1.98;;;;;;;24.83;72.28;97293.88;18432429;32;20105;-58
2023/07/31 17:35:47;;;;;;;3.03;1.95;;;;;;;24.66;66.60;97306.28;18431864;32;20108;-58
2023/07/31 17:45:50;;;;;;;3.05;1.90;;;;;;;24.60;64.99;97297.50;18417220;32;20146;-57
2023/07/31 17:55:53;;;;;;;2.22;1.58;;;;;;;24.46;76.23;97297.28;18417105;32;20112;-58
2023/07/31 18:05:56;;;;;;;4.30;1.70;;;;;;;24.14;88.93;97284.53;18430741;32;20087;-58
2023/07/31 18:15:59;;;;;;;2.67;1.90;;;;;;;24.01;92.57;97272.87;18416488;32;20065;-58
2023/07/31 18:26:06;;;;;;;2.70;1.85;;;;;;;23.52;94.44;97288.16;18430429;32;20330;-58
2023/07/31 18:36:08;;;;;;;;;;;;;;;22.94;100.00;97272.41;18431016;32;20463;-58
2023/07/31 18:46:11;;;;;;;2.87;1.87;;;;;;;22.49;100.00;97268.25;18429595;32;19976;-58
2023/07/31 18:56:14;;;;;;;2.75;1.73;;;;;;;22.10;100.00;97263.38;18431075;32;20053;-58
2023/07/31 19:06:18;;;;;;;5.15;2.40;;;;;;;21.81;100.00;97254.41;18426441;32;20053;-58
2023/07/31 19:16:21;;;;;;;5.07;3.00;;;;;;;21.47;100.00;97242.09;18440093;32;20068;-58
2023/07/31 19:26:24;;;;;;;3.75;2.10;;;;;;;21.14;100.00;97218.44;18425316;32;20053;-58
2023/07/31 19:36:27;;;;;;;4.35;2.50;;;;;;;20.86;100.00;97218.41;18438750;32;20061;-58
2023/07/31 19:46:31;;;;;;;3.97;2.78;;;;;;;20.57;100.00;97231.28;18424309;32;20053;-58
2023/07/31 19:56:34;;;;;;;4.57;2.57;;;;;;;20.35;100.00;97222.44;18423513;32;20120;-58
2023/07/31 20:06:37;;;;;;;;;;;;;;;20.16;100.00;97231.25;18422676;32;20084;-58
2023/07/31 20:16:41;;;;;;;3.83;3.03;;;;;;;19.97;100.00;97235.34;18436558;32;19953;-58
2023/07/31 20:26:45;;;;;;;5.53;3.62;;;;;;;19.83;100.00;97239.56;18435859;32;20054;-58
2023/07/31 20:36:48;;;;;;;6.65;3.30;;;;;;;19.68;100.00;97230.03;18435193;32;20069;-58
2023/07/31 20:46:51;;;;;;;;;;;;;;;19.55;100.00;97216.31;18428115;32;20076;-58
2023/07/31 20:56:56;;;;;;;10.07;5.18;;;;;;;19.43;100.00;97211.63;18420487;32;19990;-57
2023/07/31 21:07:00;;;;;;;7.62;5.15;;;;;;;19.38;100.00;97209.09;18433267;32;20068;-58
2023/07/31 21:17:03;;;;;;;7.05;5.18;;;;;;;19.36;100.00;97202.34;18432302;32;20139;-58
2023/07/31 21:27:07;;;;;;;10.15;5.97;;;;;;;19.32;100.00;97195.94;18405615;32;20471;-58
2023/07/31 21:37:10;;;;;;;9.95;7.10;;;;;;;19.26;100.00;97182.44;18431709;32;20060;-58
2023/07/31 21:47:13;;;;;;;12.55;9.02;;;;;;;19.23;100.00;97168.63;18417230;32;20131;-58
2023/07/31 21:57:16;;;;;;;13.60;11.17;;;;;;;19.20;100.00;97148.19;18431081;32;20065;-58
2023/07/31 22:07:18;;;;;;;16.37;13.77;;;;;;;19.20;100.00;97136.41;18417519;32;20065;-58
2023/07/31 22:17:21;;;;;;;24.60;17.85;;;;;;;19.19;100.00;97118.38;18416482;32;20478;-58
2023/07/31 22:27:24;;;;;;;25.30;18.53;;;;;;;19.16;100.00;97103.41;18436198;32;20080;-58
2023/07/31 22:37:27;;;;;;;16.70;14.07;;;;;;;19.07;100.00;97078.81;18442126;32;20536;-58
2023/07/31 22:47:30;;;;;;;15.77;12.73;;;;;;;19.05;100.00;97047.44;18441850;32;20101;-58
2023/07/31 22:57:32;;;;;;;12.57;9.90;;;;;;;19.01;100.00;97017.19;18413866;32;20099;-58
2023/07/31 23:07:35;;;;;;;10.83;8.13;;;;;;;18.91;100.00;97010.22;18440764;32;20097;-57
2023/07/31 23:17:38;;;;;;;10.97;8.27;;;;;;;18.77;100.00;97009.72;18439908;32;20057;-58
2023/07/31 23:27:40;;;;;;;11.30;7.20;;;;;;;18.72;100.00;96997.03;18421899;32;20062;-58
2023/07/31 23:37:42;;;;;;;10.75;7.25;;;;;;;18.68;100.00;96990.66;18436059;32;20058;-58
2023/07/31 23:47:46;;;;;;;8.98;6.15;;;;;;;18.69;100.00;96975.00;18423743;32;20067;-58
2023/07/31 23:57:48;;;;;;;5.75;4.15;;;;;;;18.76;100.00;96964.28;18437761;32;20099;-58
